Current | Forecast
Updated: 8:00 AM JST on April 24, 2018
Observed at Memambetsu, Japan
Temperature 50°F
Humidity 50%
Dew Point 32°F
Wind SW at 9 mph
Pressure 30.15 in (Falling)
Conditions Partly Cloudy
Visibility 6.2 miles
UV 3 out of 16
Clouds (FEW) : 1500 ft
Yesterday's Maximum 54°F
Yesterday's Minimum 41°F approx.
Yesterday's Heating Degree Days 18 approx.
Sunrise4:21 AM JST
Sunset6:13 PM JST
Moon Rise11:36 AM JST
Moon Set1:24 AM JST
Moon PhaseMoon Phase
Waxing Gibbous
Raw METARMETAR RJCM 232300Z 22008KT 190V260 9999 FEW015 BKN/// 10/M00 Q1021


Monday
. High: 48° F.
Tuesday
. High: 48° F.
Wednesday
. High: 51° F.
Thursday
. High: 53° F.
Friday
. High: 51° F.
Saturday
. High: 50° F.
Sunday
. High: 48° F.
Monday
. High: 44° F.

Units: English | Metric

Find the Weather for any City, State or Zipcode, or Country:

U.S. State List | Severe Weather | Tropical Storms | Ski Conditions
United States | Canada | Central America | South America | Asia | Europe | Australia | Africa | Islands

Weather Underground

© Copyright 2018
The Weather Company, LLC